sensor_id;sensor_type;location;lat;lon;timestamp;pressure;altitude;pressure_sealevel;temperature;humidity
15050;BME280;7622;42.724;23.250;2023-01-29T00:00:20;94766.91;;;0.25;100.00
15050;BME280;7622;42.724;23.250;2023-01-29T00:02:47;94762.25;;;0.16;100.00
15050;BME280;7622;42.724;23.250;2023-01-29T00:05:14;94763.28;;;0.13;100.00
15050;BME280;7622;42.724;23.250;2023-01-29T00:07:41;94757.22;;;0.14;100.00
15050;BME280;7622;42.724;23.250;2023-01-29T00:10:09;94761.50;;;-0.02;100.00
15050;BME280;7622;42.724;23.250;2023-01-29T00:12:36;94771.84;;;-0.05;100.00
15050;BME280;7622;42.724;23.250;2023-01-29T00:15:04;94768.47;;;-0.06;100.00
15050;BME280;7622;42.724;23.250;2023-01-29T00:17:32;94777.56;;;0.00;100.00
15050;BME280;7622;42.724;23.250;2023-01-29T00:19:58;94772.16;;;0.06;100.00
15050;BME280;7622;42.724;23.250;2023-01-29T00:22:25;94782.75;;;0.14;100.00
15050;BME280;7622;42.724;23.250;2023-01-29T00:24:52;94776.81;;;-0.02;100.00
15050;BME280;7622;42.724;23.250;2023-01-29T00:27:19;94778.38;;;0.00;100.00
15050;BME280;7622;42.724;23.250;2023-01-29T00:29:46;94777.38;;;0.03;100.00
15050;BME280;7622;42.724;23.250;2023-01-29T00:32:34;94791.06;;;0.02;100.00
15050;BME280;7622;42.724;23.250;2023-01-29T00:35:01;94785.63;;;0.08;100.00
15050;BME280;7622;42.724;23.250;2023-01-29T00:37:28;94784.28;;;0.18;100.00
15050;BME280;7622;42.724;23.250;2023-01-29T00:39:55;94785.63;;;0.08;100.00
15050;BME280;7622;42.724;23.250;2023-01-29T00:42:22;94787.97;;;0.13;100.00
15050;BME280;7622;42.724;23.250;2023-01-29T00:45:07;94786.38;;;0.10;100.00
15050;BME280;7622;42.724;23.250;2023-01-29T00:47:35;94782.63;;;0.17;100.00
15050;BME280;7622;42.724;23.250;2023-01-29T00:50:04;94775.41;;;0.08;100.00
15050;BME280;7622;42.724;23.250;2023-01-29T00:52:31;94786.84;;;0.01;100.00
15050;BME280;7622;42.724;23.250;2023-01-29T00:54:59;94786.97;;;0.15;100.00
15050;BME280;7622;42.724;23.250;2023-01-29T00:57:27;94781.28;;;0.10;100.00
15050;BME280;7622;42.724;23.250;2023-01-29T00:59:54;94785.50;;;-0.06;100.00
15050;BME280;7622;42.724;23.250;2023-01-29T01:02:24;94786.53;;;0.07;100.00
15050;BME280;7622;42.724;23.250;2023-01-29T01:05:12;94779.81;;;0.06;100.00
15050;BME280;7622;42.724;23.250;2023-01-29T01:07:42;94782.03;;;0.12;100.00
15050;BME280;7622;42.724;23.250;2023-01-29T01:10:12;94781.88;;;0.15;100.00
15050;BME280;7622;42.724;23.250;2023-01-29T01:12:49;94780.13;;;0.00;100.00
15050;BME280;7622;42.724;23.250;2023-01-29T01:15:18;94783.41;;;0.02;100.00
15050;BME280;7622;42.724;23.250;2023-01-29T01:17:45;94777.56;;;0.00;100.00
15050;BME280;7622;42.724;23.250;2023-01-29T01:20:14;94773.75;;;-0.09;100.00
15050;BME280;7622;42.724;23.250;2023-01-29T01:22:41;94779.38;;;-0.02;100.00
15050;BME280;7622;42.724;23.250;2023-01-29T01:25:08;94772.75;;;-0.06;100.00
15050;BME280;7622;42.724;23.250;2023-01-29T01:27:35;94763.91;;;-0.16;100.00
15050;BME280;7622;42.724;23.250;2023-01-29T01:30:08;94782.06;;;-0.05;100.00
15050;BME280;7622;42.724;23.250;2023-01-29T01:32:35;94776.94;;;-0.05;100.00
15050;BME280;7622;42.724;23.250;2023-01-29T01:35:02;94771.69;;;-0.02;100.00
15050;BME280;7622;42.724;23.250;2023-01-29T01:37:30;94775.28;;;-0.06;100.00
15050;BME280;7622;42.724;23.250;2023-01-29T01:39:57;94777.78;;;-0.05;100.00
15050;BME280;7622;42.724;23.250;2023-01-29T01:42:27;94776.19;;;0.10;100.00
15050;BME280;7622;42.724;23.250;2023-01-29T01:44:57;94776.22;;;-0.07;100.00
15050;BME280;7622;42.724;23.250;2023-01-29T01:47:33;94773.44;;;-0.03;100.00
15050;BME280;7622;42.724;23.250;2023-01-29T01:50:06;94777.25;;;0.06;100.00
15050;BME280;7622;42.724;23.250;2023-01-29T01:52:39;94775.75;;;0.02;100.00
15050;BME280;7622;42.724;23.250;2023-01-29T01:55:11;94778.78;;;-0.07;100.00
15050;BME280;7622;42.724;23.250;2023-01-29T01:57:39;94783.06;;;-0.08;100.00
15050;BME280;7622;42.724;23.250;2023-01-29T02:00:09;94782.06;;;-0.05;100.00
15050;BME280;7622;42.724;23.250;2023-01-29T02:02:38;94782.03;;;-0.21;100.00
15050;BME280;7622;42.724;23.250;2023-01-29T02:05:24;94787.41;;;-0.10;100.00
15050;BME280;7622;42.724;23.250;2023-01-29T02:08:11;94793.84;;;-0.03;100.00
15050;BME280;7622;42.724;23.250;2023-01-29T02:10:57;94788.81;;;-0.04;100.00
15050;BME280;7622;42.724;23.250;2023-01-29T02:13:23;94783.13;;;-0.09;100.00
15050;BME280;7622;42.724;23.250;2023-01-29T02:15:50;94783.72;;;-0.04;100.00
15050;BME280;7622;42.724;23.250;2023-01-29T02:18:19;94787.78;;;-0.17;100.00
15050;BME280;7622;42.724;23.250;2023-01-29T02:20:59;94789.00;;;-0.24;100.00
15050;BME280;7622;42.724;23.250;2023-01-29T02:23:44;94792.34;;;-0.07;100.00
15050;BME280;7622;42.724;23.250;2023-01-29T02:26:37;94792.75;;;-0.14;100.00
15050;BME280;7622;42.724;23.250;2023-01-29T02:29:09;94796.84;;;-0.12;100.00
15050;BME280;7622;42.724;23.250;2023-01-29T02:32:06;94796.84;;;-0.12;100.00
15050;BME280;7622;42.724;23.250;2023-01-29T02:34:40;94785.69;;;-0.09;100.00
15050;BME280;7622;42.724;23.250;2023-01-29T02:37:33;94762.88;;;-0.29;100.00
15050;BME280;7622;42.724;23.250;2023-01-29T02:40:09;94801.06;;;0.07;100.00
15050;BME280;7622;42.724;23.250;2023-01-29T02:42:42;94805.34;;;0.06;100.00
15050;BME280;7622;42.724;23.250;2023-01-29T02:45:15;94808.41;;;-0.05;100.00
15050;BME280;7622;42.724;23.250;2023-01-29T02:47:47;94789.00;;;-0.07;100.00
15050;BME280;7622;42.724;23.250;2023-01-29T02:50:17;94807.66;;;0.11;100.00
15050;BME280;7622;42.724;23.250;2023-01-29T02:52:53;94808.78;;;0.05;100.00
15050;BME280;7622;42.724;23.250;2023-01-29T02:55:24;94805.03;;;0.12;100.00
15050;BME280;7622;42.724;23.250;2023-01-29T02:57:58;94781.22;;;-0.06;100.00
15050;BME280;7622;42.724;23.250;2023-01-29T03:00:31;94808.00;;;0.20;100.00
15050;BME280;7622;42.724;23.250;2023-01-29T03:03:01;94794.81;;;0.12;100.00
15050;BME280;7622;42.724;23.250;2023-01-29T03:05:32;94806.38;;;0.19;100.00
15050;BME280;7622;42.724;23.250;2023-01-29T03:08:03;94806.19;;;0.22;100.00
15050;BME280;7622;42.724;23.250;2023-01-29T03:10:37;94803.75;;;0.36;100.00
15050;BME280;7622;42.724;23.250;2023-01-29T03:13:09;94797.94;;;0.17;100.00
15050;BME280;7622;42.724;23.250;2023-01-29T03:15:42;94809.50;;;0.24;100.00
15050;BME280;7622;42.724;23.250;2023-01-29T03:18:14;94808.91;;;0.19;100.00
15050;BME280;7622;42.724;23.250;2023-01-29T03:20:46;94806.94;;;0.24;100.00
15050;BME280;7622;42.724;23.250;2023-01-29T03:23:18;94813.03;;;0.22;100.00
15050;BME280;7622;42.724;23.250;2023-01-29T03:25:50;94813.56;;;0.11;100.00
15050;BME280;7622;42.724;23.250;2023-01-29T03:28:38;94817.31;;;0.21;100.00
15050;BME280;7622;42.724;23.250;2023-01-29T03:31:26;94823.28;;;0.05;100.00
15050;BME280;7622;42.724;23.250;2023-01-29T03:34:13;94815.44;;;0.25;100.00
15050;BME280;7622;42.724;23.250;2023-01-29T03:36:52;94814.28;;;0.30;100.00
15050;BME280;7622;42.724;23.250;2023-01-29T03:39:21;94818.22;;;0.20;100.00
15050;BME280;7622;42.724;23.250;2023-01-29T03:41:56;94800.06;;;0.09;100.00
15050;BME280;7622;42.724;23.250;2023-01-29T03:44:33;94822.19;;;0.26;100.00
15050;BME280;7622;42.724;23.250;2023-01-29T03:47:12;94812.00;;;0.42;100.00
15050;BME280;7622;42.724;23.250;2023-01-29T03:49:52;94816.78;;;0.32;100.00
15050;BME280;7622;42.724;23.250;2023-01-29T03:52:26;94816.38;;;0.39;100.00
15050;BME280;7622;42.724;23.250;2023-01-29T03:54:58;94811.69;;;0.48;100.00
15050;BME280;7622;42.724;23.250;2023-01-29T03:57:34;94817.59;;;0.32;100.00
15050;BME280;7622;42.724;23.250;2023-01-29T04:00:06;94819.47;;;0.29;100.00
15050;BME280;7622;42.724;23.250;2023-01-29T04:02:42;94816.72;;;0.16;100.00
15050;BME280;7622;42.724;23.250;2023-01-29T04:05:18;94783.63;;;-0.03;100.00
15050;BME280;7622;42.724;23.250;2023-01-29T04:07:46;94813.31;;;0.33;100.00
15050;BME280;7622;42.724;23.250;2023-01-29T04:10:20;94813.06;;;0.37;100.00
15050;BME280;7622;42.724;23.250;2023-01-29T04:12:51;94824.13;;;0.21;100.00
15050;BME280;7622;42.724;23.250;2023-01-29T04:15:21;94824.88;;;0.23;100.00
15050;BME280;7622;42.724;23.250;2023-01-29T04:17:51;94830.13;;;0.37;100.00
15050;BME280;7622;42.724;23.250;2023-01-29T04:20:19;94830.06;;;0.38;100.00
15050;BME280;7622;42.724;23.250;2023-01-29T04:22:48;94834.13;;;0.25;100.00
15050;BME280;7622;42.724;23.250;2023-01-29T04:25:20;94832.03;;;0.16;100.00
15050;BME280;7622;42.724;23.250;2023-01-29T04:27:56;94829.78;;;0.27;100.00
15050;BME280;7622;42.724;23.250;2023-01-29T04:30:34;94838.50;;;0.23;100.00
15050;BME280;7622;42.724;23.250;2023-01-29T04:33:13;94831.38;;;0.13;100.00
15050;BME280;7622;42.724;23.250;2023-01-29T04:35:52;94832.88;;;0.17;100.00
15050;BME280;7622;42.724;23.250;2023-01-29T04:38:28;94831.06;;;0.19;100.00
15050;BME280;7622;42.724;23.250;2023-01-29T04:41:04;94841.13;;;0.22;100.00
15050;BME280;7622;42.724;23.250;2023-01-29T04:43:38;94839.78;;;0.15;100.00
15050;BME280;7622;42.724;23.250;2023-01-29T04:46:12;94841.81;;;0.25;100.00
15050;BME280;7622;42.724;23.250;2023-01-29T04:48:55;94840.47;;;0.18;100.00
15050;BME280;7622;42.724;23.250;2023-01-29T04:51:30;94834.69;;;-0.03;100.00
15050;BME280;7622;42.724;23.250;2023-01-29T04:54:07;94836.56;;;0.11;100.00
15050;BME280;7622;42.724;23.250;2023-01-29T04:56:42;94847.00;;;0.07;100.00
15050;BME280;7622;42.724;23.250;2023-01-29T04:59:16;94844.53;;;0.05;100.00
15050;BME280;7622;42.724;23.250;2023-01-29T05:01:47;94840.91;;;0.09;100.00
15050;BME280;7622;42.724;23.250;2023-01-29T05:04:17;94844.53;;;0.05;100.00
15050;BME280;7622;42.724;23.250;2023-01-29T05:06:45;94844.03;;;0.14;100.00
15050;BME280;7622;42.724;23.250;2023-01-29T05:09:13;94845.94;;;0.11;100.00
15050;BME280;7622;42.724;23.250;2023-01-29T05:11:43;94847.22;;;0.19;100.00
15050;BME280;7622;42.724;23.250;2023-01-29T05:14:12;94851.56;;;0.17;100.00
15050;BME280;7622;42.724;23.250;2023-01-29T05:16:42;94849.16;;;0.14;100.00
15050;BME280;7622;42.724;23.250;2023-01-29T05:19:14;94849.31;;;0.11;100.00
15050;BME280;7622;42.724;23.250;2023-01-29T05:21:44;94852.91;;;0.07;100.00
15050;BME280;7622;42.724;23.250;2023-01-29T05:24:15;94826.59;;;0.07;100.00
15050;BME280;7622;42.724;23.250;2023-01-29T05:26:44;94844.34;;;0.08;100.00
15050;BME280;7622;42.724;23.250;2023-01-29T05:29:29;94852.78;;;0.10;100.00
15050;BME280;7622;42.724;23.250;2023-01-29T05:31:56;94845.88;;;0.12;100.00
15050;BME280;7622;42.724;23.250;2023-01-29T05:34:24;94863.44;;;0.01;100.00
15050;BME280;7622;42.724;23.250;2023-01-29T05:36:51;94856.91;;;-0.05;100.00
15050;BME280;7622;42.724;23.250;2023-01-29T05:39:18;94859.38;;;0.14;100.00
15050;BME280;7622;42.724;23.250;2023-01-29T05:41:45;94840.06;;;0.09;100.00
15050;BME280;7622;42.724;23.250;2023-01-29T05:44:12;94867.16;;;0.28;100.00
15050;BME280;7622;42.724;23.250;2023-01-29T05:46:39;94870.78;;;0.07;100.00
15050;BME280;7622;42.724;23.250;2023-01-29T05:49:09;94867.66;;;0.19;100.00
15050;BME280;7622;42.724;23.250;2023-01-29T05:51:37;94872.81;;;0.18;100.00
15050;BME280;7622;42.724;23.250;2023-01-29T05:54:04;94838.44;;;0.08;100.00
15050;BME280;7622;42.724;23.250;2023-01-29T05:56:31;94877.25;;;0.31;100.00
15050;BME280;7622;42.724;23.250;2023-01-29T05:58:57;94882.03;;;0.37;100.00
15050;BME280;7622;42.724;23.250;2023-01-29T06:01:24;94883.31;;;0.29;100.00
15050;BME280;7622;42.724;23.250;2023-01-29T06:03:51;94882.50;;;0.28;100.00
15050;BME280;7622;42.724;23.250;2023-01-29T06:06:18;94882.72;;;0.24;100.00
15050;BME280;7622;42.724;23.250;2023-01-29T06:08:46;94887.59;;;0.28;100.00
15050;BME280;7622;42.724;23.250;2023-01-29T06:11:14;94887.69;;;0.27;100.00
15050;BME280;7622;42.724;23.250;2023-01-29T06:13:42;94886.25;;;0.21;100.00
15050;BME280;7622;42.724;23.250;2023-01-29T06:16:10;94891.22;;;0.24;100.00
15050;BME280;7622;42.724;23.250;2023-01-29T06:18:38;94896.19;;;0.27;100.00
15050;BME280;7622;42.724;23.250;2023-01-29T06:21:07;94900.91;;;0.18;100.00
15050;BME280;7622;42.724;23.250;2023-01-29T06:23:34;94894.69;;;0.23;100.00
15050;BME280;7622;42.724;23.250;2023-01-29T06:26:04;94886.72;;;0.12;100.00
15050;BME280;7622;42.724;23.250;2023-01-29T06:28:31;94915.53;;;0.14;100.00
15050;BME280;7622;42.724;23.250;2023-01-29T06:30:59;94916.31;;;0.16;100.00
15050;BME280;7622;42.724;23.250;2023-01-29T06:33:26;94911.22;;;0.33;100.00
15050;BME280;7622;42.724;23.250;2023-01-29T06:35:56;94921.03;;;0.41;100.00
15050;BME280;7622;42.724;23.250;2023-01-29T06:38:23;94909.03;;;0.26;100.00
15050;BME280;7622;42.724;23.250;2023-01-29T06:40:50;94920.34;;;0.37;100.00
15050;BME280;7622;42.724;23.250;2023-01-29T06:43:19;94923.59;;;0.41;100.00
15050;BME280;7622;42.724;23.250;2023-01-29T06:45:47;94921.13;;;0.39;100.00
15050;BME280;7622;42.724;23.250;2023-01-29T06:48:14;94929.38;;;0.45;100.00
15050;BME280;7622;42.724;23.250;2023-01-29T06:50:41;94922.59;;;0.44;100.00
15050;BME280;7622;42.724;23.250;2023-01-29T06:53:08;94926.84;;;0.27;100.00
15050;BME280;7622;42.724;23.250;2023-01-29T06:55:35;94909.84;;;0.26;100.00
15050;BME280;7622;42.724;23.250;2023-01-29T06:58:04;94934.09;;;0.52;100.00
15050;BME280;7622;42.724;23.250;2023-01-29T07:00:33;94930.84;;;0.49;100.00
15050;BME280;7622;42.724;23.250;2023-01-29T07:02:59;94935.31;;;0.45;100.00
15050;BME280;7622;42.724;23.250;2023-01-29T07:05:26;94937.94;;;0.61;100.00
15050;BME280;7622;42.724;23.250;2023-01-29T07:07:53;94938.50;;;0.66;100.00
15050;BME280;7622;42.724;23.250;2023-01-29T07:10:20;94943.50;;;0.69;100.00
15050;BME280;7622;42.724;23.250;2023-01-29T07:12:46;94947.09;;;0.65;100.00
15050;BME280;7622;42.724;23.250;2023-01-29T07:15:13;94951.28;;;0.66;100.00
15050;BME280;7622;42.724;23.250;2023-01-29T07:17:54;94955.97;;;0.58;100.00
15050;BME280;7622;42.724;23.250;2023-01-29T07:20:22;94964.38;;;0.43;100.00
15050;BME280;7622;42.724;23.250;2023-01-29T07:22:48;94962.50;;;0.46;100.00
15050;BME280;7622;42.724;23.250;2023-01-29T07:25:15;94954.03;;;0.46;100.00
15050;BME280;7622;42.724;23.250;2023-01-29T07:27:42;94963.47;;;0.44;100.00
15050;BME280;7622;42.724;23.250;2023-01-29T07:30:10;94962.22;;;0.52;100.00
15050;BME280;7622;42.724;23.250;2023-01-29T07:32:37;94975.78;;;0.35;100.00
15050;BME280;7622;42.724;23.250;2023-01-29T07:35:05;94969.28;;;0.47;100.00
15050;BME280;7622;42.724;23.250;2023-01-29T07:37:32;94972.44;;;0.52;100.00
15050;BME280;7622;42.724;23.250;2023-01-29T07:39:59;94977.59;;;0.51;100.00
15050;BME280;7622;42.724;23.250;2023-01-29T07:42:26;94953.25;;;0.44;100.00
15050;BME280;7622;42.724;23.250;2023-01-29T07:44:52;94965.28;;;0.59;100.00
15050;BME280;7622;42.724;23.250;2023-01-29T07:47:19;94962.28;;;0.51;100.00
15050;BME280;7622;42.724;23.250;2023-01-29T07:49:46;94969.50;;;0.60;100.00
15050;BME280;7622;42.724;23.250;2023-01-29T07:52:14;94970.31;;;0.60;100.00
15050;BME280;7622;42.724;23.250;2023-01-29T07:54:41;94972.19;;;0.57;100.00
15050;BME280;7622;42.724;23.250;2023-01-29T07:57:07;94972.19;;;0.57;100.00
15050;BME280;7622;42.724;23.250;2023-01-29T07:59:34;94977.59;;;0.51;100.00
15050;BME280;7622;42.724;23.250;2023-01-29T08:02:01;94981.00;;;0.68;100.00
15050;BME280;7622;42.724;23.250;2023-01-29T08:04:28;94980.91;;;0.70;100.00
15050;BME280;7622;42.724;23.250;2023-01-29T08:06:54;94975.94;;;0.67;100.00
15050;BME280;7622;42.724;23.250;2023-01-29T08:09:22;94979.53;;;0.63;100.00
15050;BME280;7622;42.724;23.250;2023-01-29T08:11:49;94983.38;;;0.71;100.00
15050;BME280;7622;42.724;23.250;2023-01-29T08:14:16;94983.06;;;0.77;100.00
15050;BME280;7622;42.724;23.250;2023-01-29T08:16:43;94987.47;;;0.91;100.00
15050;BME280;7622;42.724;23.250;2023-01-29T08:19:10;94978.97;;;0.91;100.00
15050;BME280;7622;42.724;23.250;2023-01-29T08:21:36;94990.88;;;0.92;100.00
15050;BME280;7622;42.724;23.250;2023-01-29T08:24:04;94984.03;;;0.92;100.00
15050;BME280;7622;42.724;23.250;2023-01-29T08:26:32;94987.59;;;0.90;100.00
15050;BME280;7622;42.724;23.250;2023-01-29T08:28:59;94984.03;;;0.92;100.00
15050;BME280;7622;42.724;23.250;2023-01-29T08:31:25;95004.00;;;0.68;100.00
15050;BME280;7622;42.724;23.250;2023-01-29T08:33:52;94996.38;;;0.84;100.00
15050;BME280;7622;42.724;23.250;2023-01-29T08:36:19;95004.22;;;0.81;100.00
15050;BME280;7622;42.724;23.250;2023-01-29T08:38:46;95002.84;;;0.74;100.00
15050;BME280;7622;42.724;23.250;2023-01-29T08:41:12;95007.81;;;0.94;100.00
15050;BME280;7622;42.724;23.250;2023-01-29T08:43:41;95004.16;;;0.98;100.00
15050;BME280;7622;42.724;23.250;2023-01-29T08:46:07;94975.53;;;0.92;100.00
15050;BME280;7622;42.724;23.250;2023-01-29T08:48:34;95002.38;;;1.00;100.00
15050;BME280;7622;42.724;23.250;2023-01-29T08:51:01;95007.72;;;0.96;100.00
15050;BME280;7622;42.724;23.250;2023-01-29T08:53:29;94998.28;;;0.81;100.00
15050;BME280;7622;42.724;23.250;2023-01-29T08:55:55;95012.16;;;0.92;100.00
15050;BME280;7622;42.724;23.250;2023-01-29T08:58:22;95017.84;;;0.97;100.00
15050;BME280;7622;42.724;23.250;2023-01-29T09:00:50;95017.13;;;0.95;100.00
15050;BME280;7622;42.724;23.250;2023-01-29T09:03:17;95025.63;;;0.96;100.00
15050;BME280;7622;42.724;23.250;2023-01-29T09:05:44;95021.56;;;0.92;100.00
15050;BME280;7622;42.724;23.250;2023-01-29T09:08:11;95023.28;;;0.91;100.00
15050;BME280;7622;42.724;23.250;2023-01-29T09:10:38;95019.75;;;0.94;100.00
15050;BME280;7622;42.724;23.250;2023-01-29T09:13:04;95008.25;;;1.02;100.00
15050;BME280;7622;42.724;23.250;2023-01-29T09:15:31;95021.16;;;1.16;100.00
15050;BME280;7622;42.724;23.250;2023-01-29T09:18:03;95012.72;;;1.14;100.00
15050;BME280;7622;42.724;23.250;2023-01-29T09:20:30;95015.88;;;1.19;100.00
15050;BME280;7622;42.724;23.250;2023-01-29T09:22:56;95016.38;;;1.26;100.00
15050;BME280;7622;42.724;23.250;2023-01-29T09:25:23;95016.88;;;1.17;100.00
15050;BME280;7622;42.724;23.250;2023-01-29T09:27:50;95010.28;;;0.96;100.00
15050;BME280;7622;42.724;23.250;2023-01-29T09:30:17;95016.63;;;1.04;100.00
15050;BME280;7622;42.724;23.250;2023-01-29T09:32:44;95013.03;;;1.08;100.00
15050;BME280;7622;42.724;23.250;2023-01-29T09:35:12;95012.72;;;1.14;100.00
15050;BME280;7622;42.724;23.250;2023-01-29T09:37:39;95008.81;;;1.07;100.00
15050;BME280;7622;42.724;23.250;2023-01-29T09:40:07;95005.44;;;1.07;100.00
15050;BME280;7622;42.724;23.250;2023-01-29T09:42:47;95007.16;;;1.24;100.00
15050;BME280;7622;42.724;23.250;2023-01-29T09:45:20;95003.56;;;1.10;100.00
15050;BME280;7622;42.724;23.250;2023-01-29T09:47:49;94999.78;;;1.17;100.00
15050;BME280;7622;42.724;23.250;2023-01-29T09:50:21;95003.72;;;1.07;100.00
15050;BME280;7622;42.724;23.250;2023-01-29T09:52:52;95000.88;;;1.29;100.00
15050;BME280;7622;42.724;23.250;2023-01-29T09:55:25;94997.06;;;1.21;100.00
15050;BME280;7622;42.724;23.250;2023-01-29T09:57:55;94998.41;;;1.28;100.00
15050;BME280;7622;42.724;23.250;2023-01-29T10:00:24;95000.50;;;1.19;100.00
15050;BME280;7622;42.724;23.250;2023-01-29T10:03:03;94998.03;;;1.18;100.00
15050;BME280;7622;42.724;23.250;2023-01-29T10:05:53;94993.91;;;1.15;100.00
15050;BME280;7622;42.724;23.250;2023-01-29T10:08:49;94996.69;;;1.44;100.00
15050;BME280;7622;42.724;23.250;2023-01-29T10:11:29;94987.00;;;1.17;100.00
15050;BME280;7622;42.724;23.250;2023-01-29T10:14:10;94980.63;;;1.25;100.00
15050;BME280;7622;42.724;23.250;2023-01-29T10:16:49;94982.03;;;1.14;100.00
15050;BME280;7622;42.724;23.250;2023-01-29T10:19:40;94987.66;;;1.21;100.00
15050;BME280;7622;42.724;23.250;2023-01-29T10:25:03;94973.56;;;1.61;100.00
15050;BME280;7622;42.724;23.250;2023-01-29T10:27:32;94968.66;;;1.25;100.00
15050;BME280;7622;42.724;23.250;2023-01-29T10:30:01;94961.94;;;1.24;100.00
15050;BME280;7622;42.724;23.250;2023-01-29T10:32:29;94973.53;;;1.14;100.00
15050;BME280;7622;42.724;23.250;2023-01-29T10:35:00;94975.44;;;1.10;100.00
15050;BME280;7622;42.724;23.250;2023-01-29T10:37:35;94968.38;;;0.98;100.00
15050;BME280;7622;42.724;23.250;2023-01-29T10:40:16;94965.31;;;0.92;100.00
15050;BME280;7622;42.724;23.250;2023-01-29T10:42:48;94970.41;;;0.92;100.00
15050;BME280;7622;42.724;23.250;2023-01-29T10:45:25;94966.59;;;0.83;100.00
15050;BME280;7622;42.724;23.250;2023-01-29T10:51:00;94970.50;;;0.90;100.00
15050;BME280;7622;42.724;23.250;2023-01-29T10:53:45;94961.00;;;0.92;100.00
15050;BME280;7622;42.724;23.250;2023-01-29T10:56:36;94962.59;;;0.95;100.00
15050;BME280;7622;42.724;23.250;2023-01-29T10:59:09;94966.63;;;0.99;100.00
15050;BME280;7622;42.724;23.250;2023-01-29T11:01:46;94958.31;;;0.95;100.00
15050;BME280;7622;42.724;23.250;2023-01-29T11:04:13;94954.38;;;0.72;100.00
15050;BME280;7622;42.724;23.250;2023-01-29T11:06:41;94965.38;;;0.90;100.00
15050;BME280;7622;42.724;23.250;2023-01-29T11:09:16;94960.56;;;1.01;100.00
15050;BME280;7622;42.724;23.250;2023-01-29T11:11:48;94949.56;;;0.99;100.00
15050;BME280;7622;42.724;23.250;2023-01-29T11:14:20;94948.91;;;0.96;100.00
15050;BME280;7622;42.724;23.250;2023-01-29T11:16:48;94946.69;;;1.05;100.00
15050;BME280;7622;42.724;23.250;2023-01-29T11:19:15;94938.84;;;0.93;100.00
15050;BME280;7622;42.724;23.250;2023-01-29T11:21:55;94948.53;;;1.03;100.00
15050;BME280;7622;42.724;23.250;2023-01-29T11:24:25;94939.44;;;1.13;100.00
15050;BME280;7622;42.724;23.250;2023-01-29T11:26:53;94940.53;;;1.09;100.00
15050;BME280;7622;42.724;23.250;2023-01-29T11:29:36;94934.00;;;1.19;100.00
15050;BME280;7622;42.724;23.250;2023-01-29T11:32:05;94932.63;;;1.30;100.00
15050;BME280;7622;42.724;23.250;2023-01-29T11:34:32;94933.53;;;1.29;100.00
15050;BME280;7622;42.724;23.250;2023-01-29T11:37:01;94938.00;;;1.41;100.00
15050;BME280;7622;42.724;23.250;2023-01-29T11:39:30;94917.19;;;1.47;100.00
15050;BME280;7622;42.724;23.250;2023-01-29T11:41:59;94919.66;;;1.33;100.00
15050;BME280;7622;42.724;23.250;2023-01-29T11:44:30;94917.53;;;1.41;100.00
15050;BME280;7622;42.724;23.250;2023-01-29T11:47:09;94914.53;;;1.33;100.00
15050;BME280;7622;42.724;23.250;2023-01-29T11:49:38;94922.31;;;1.31;100.00
15050;BME280;7622;42.724;23.250;2023-01-29T11:52:08;94923.78;;;1.19;100.00
15050;BME280;7622;42.724;23.250;2023-01-29T11:54:39;94922.22;;;1.33;100.00
15050;BME280;7622;42.724;23.250;2023-01-29T11:57:21;94916.03;;;1.21;100.00
15050;BME280;7622;42.724;23.250;2023-01-29T11:59:50;94913.31;;;1.24;100.00
15050;BME280;7622;42.724;23.250;2023-01-29T12:02:22;94921.25;;;1.35;100.00
15050;BME280;7622;42.724;23.250;2023-01-29T12:04:54;94908.28;;;1.23;100.00
15050;BME280;7622;42.724;23.250;2023-01-29T12:07:21;94916.13;;;1.35;100.00
15050;BME280;7622;42.724;23.250;2023-01-29T12:09:53;94907.94;;;1.29;100.00
15050;BME280;7622;42.724;23.250;2023-01-29T12:12:29;94905.88;;;1.19;100.00
15050;BME280;7622;42.724;23.250;2023-01-29T12:15:18;94912.25;;;1.44;100.00
15050;BME280;7622;42.724;23.250;2023-01-29T12:17:52;94905.97;;;1.65;100.00
15050;BME280;7622;42.724;23.250;2023-01-29T12:20:26;94910.16;;;1.66;100.00
15050;BME280;7622;42.724;23.250;2023-01-29T12:23:01;94910.75;;;1.71;100.00
15050;BME280;7622;42.724;23.250;2023-01-29T12:25:40;94904.94;;;1.83;100.00
15050;BME280;7622;42.724;23.250;2023-01-29T12:28:20;94905.81;;;1.98;100.00
15050;BME280;7622;42.724;23.250;2023-01-29T12:30:56;94903.91;;;2.02;100.00
15050;BME280;7622;42.724;23.250;2023-01-29T12:33:28;94902.41;;;2.13;100.00
15050;BME280;7622;42.724;23.250;2023-01-29T12:36:06;94892.75;;;2.03;100.00
15050;BME280;7622;42.724;23.250;2023-01-29T12:38:35;94905.19;;;2.09;100.00
15050;BME280;7622;42.724;23.250;2023-01-29T12:41:07;94904.47;;;2.07;100.00
15050;BME280;7622;42.724;23.250;2023-01-29T12:43:40;94907.88;;;2.07;100.00
15050;BME280;7622;42.724;23.250;2023-01-29T12:46:13;94910.31;;;2.09;100.00
15050;BME280;7622;42.724;23.250;2023-01-29T12:48:44;94907.63;;;1.96;100.00
15050;BME280;7622;42.724;23.250;2023-01-29T12:51:15;94909.72;;;1.89;100.00
15050;BME280;7622;42.724;23.250;2023-01-29T12:53:48;94897.81;;;1.88;100.00
15050;BME280;7622;42.724;23.250;2023-01-29T12:56:25;94899.25;;;2.08;100.00
15050;BME280;7622;42.724;23.250;2023-01-29T12:58:55;94907.38;;;2.01;100.00
15050;BME280;7622;42.724;23.250;2023-01-29T13:01:30;94904.66;;;1.88;100.00
15050;BME280;7622;42.724;23.250;2023-01-29T13:04:01;94901.72;;;2.10;100.00
15050;BME280;7622;42.724;23.250;2023-01-29T13:06:32;94906.09;;;1.93;100.00
15050;BME280;7622;42.724;23.250;2023-01-29T13:09:02;94899.47;;;1.89;100.00
15050;BME280;7622;42.724;23.250;2023-01-29T13:11:36;94895.69;;;1.81;100.00
15050;BME280;7622;42.724;23.250;2023-01-29T13:14:08;94905.75;;;1.84;100.00
15050;BME280;7622;42.724;23.250;2023-01-29T13:16:43;94903.56;;;1.62;100.00
15050;BME280;7622;42.724;23.250;2023-01-29T13:19:19;94907.69;;;1.65;100.00
15050;BME280;7622;42.724;23.250;2023-01-29T13:21:49;94909.44;;;1.64;100.00
15050;BME280;7622;42.724;23.250;2023-01-29T13:24:20;94905.53;;;1.73;100.00
15050;BME280;7622;42.724;23.250;2023-01-29T13:26:50;94913.31;;;1.71;100.00